Time;durP1;ratioP1;P1;durP2;ratioP2;P2;SDS_P1;SDS_P2;PMS_P1;PMS_P2;Temp;Humidity;BMP_temperature;BMP_pressure;BME280_temperature;BME280_humidity;BME280_pressure;Samples;Min_cycle;Max_cycle;Signal;HPM_P1;HPM_P2
2022/07/09 00:00:54;;;;;;;;;;;20.40;79.30;;;;;;6200083;23;19973;-96
2022/07/09 00:03:26;;;;;;;;;;;20.40;79.70;;;;;;6210513;23;19943;-96
2022/07/09 00:05:53;;;;;;;;;;;20.30;79.40;;;;;;6210010;23;19947;-96
2022/07/09 00:08:19;;;;;;;;;;;20.30;79.30;;;;;;6208463;23;19946;-96
2022/07/09 00:10:45;;;;;;;;;;;20.20;78.50;;;;;;6208784;23;19958;-96
2022/07/09 00:13:10;;;;;;;;;;;20.10;80.10;;;;;;6233726;23;19947;-96
2022/07/09 00:15:37;;;;;;;;;;;20.10;79.30;;;;;;6209499;23;19950;-96
2022/07/09 00:31:07;;;;;;;;;;;20.20;78.80;;;;;;5580567;22;15835996;-96
2022/07/09 00:33:40;;;;;;;;;;;20.10;80.20;;;;;;6342738;22;19964;-96
2022/07/09 00:36:08;;;;;;;;;;;20.00;81.00;;;;;;6342731;22;19937;-96
2022/07/09 00:38:44;;;;;;;;;;;19.90;81.00;;;;;;6342367;22;19934;-96
2022/07/09 00:41:14;;;;;;;;;;;19.80;81.40;;;;;;6342533;22;19923;-96
2022/07/09 00:44:11;;;;;;;;;;;19.80;81.70;;;;;;6344124;22;19936;-98
2022/07/09 00:46:39;;;;;;;;;;;19.80;82.10;;;;;;6343673;22;19956;-97
2022/07/09 00:49:12;;;;;;;;;;;19.90;82.30;;;;;;6320562;22;20018;-96
2022/07/09 00:51:38;;;;;;;;;;;19.80;82.40;;;;;;6341237;22;19977;-96
2022/07/09 00:54:04;;;;;;;;;;;19.70;82.30;;;;;;6341707;22;19942;-96
2022/07/09 00:56:31;;;;;;;;;;;19.70;82.50;;;;;;6342149;22;19942;-96
2022/07/09 00:58:58;;;;;;;;;;;19.60;82.80;;;;;;6341783;22;19936;-96
2022/07/09 01:01:26;;;;;;;;;;;19.60;82.90;;;;;;6342673;22;19954;-96
2022/07/09 01:03:53;;;;;;;;;;;19.30;82.50;;;;;;6341799;22;19934;-96
2022/07/09 01:06:19;;;;;;;;;;;19.20;82.70;;;;;;6342093;22;20024;-96
2022/07/09 01:08:48;;;;;;;;;;;19.20;82.80;;;;;;6339846;22;19989;-96
2022/07/09 01:11:14;;;;;;;;;;;19.30;83.00;;;;;;6370088;22;19946;-96
2022/07/09 01:13:40;;;;;;;;;;;19.20;83.20;;;;;;6369288;22;19942;-96
2022/07/09 01:16:12;;;;;;;;;;;19.30;83.00;;;;;;6340312;22;19933;-96
2022/07/09 01:18:37;;;;;;;;;;;19.30;82.80;;;;;;6342009;22;19947;-96
2022/07/09 01:21:07;;;;;;;;;;;19.40;82.10;;;;;;6342882;22;19979;-96
2022/07/09 01:23:36;;;;;;;;;;;19.60;82.20;;;;;;6342463;22;19960;-96
2022/07/09 01:26:02;;;;;;;;;;;19.70;82.30;;;;;;6358986;22;19944;-96
2022/07/09 01:28:31;;;;;;;;;;;19.70;82.10;;;;;;6310386;22;19963;-96
2022/07/09 01:30:57;;;;;;;;;;;19.60;82.10;;;;;;6305991;22;19934;-96
2022/07/09 01:33:24;;;;;;;;;;;19.60;82.20;;;;;;6299954;22;19942;-96
2022/07/09 01:35:50;;;;;;;;;;;19.50;82.10;;;;;;6299512;22;19945;-96
2022/07/09 01:38:15;;;;;;;;;;;19.40;81.90;;;;;;6300503;22;19942;-96
2022/07/09 01:40:41;;;;;;;;;;;19.40;81.70;;;;;;6300109;22;19948;-96
2022/07/09 01:43:07;;;;;;;;;;;19.30;82.00;;;;;;6297832;22;20019;-96
2022/07/09 01:45:33;;;;;;;;;;;19.30;81.20;;;;;;6327441;22;19956;-96
2022/07/09 01:47:58;;;;;;;;;;;19.30;81.70;;;;;;6328461;22;19940;-96
2022/07/09 01:50:24;;;;;;;;;;;19.30;81.70;;;;;;6302151;22;19997;-96
2022/07/09 01:52:50;;;;;;;;;;;19.40;81.60;;;;;;6301704;22;19939;-96
2022/07/09 01:55:17;;;;;;;;;;;19.40;81.40;;;;;;6301235;22;19939;-96
2022/07/09 01:57:43;;;;;;;;;;;19.30;81.20;;;;;;6328312;22;19932;-96
2022/07/09 02:00:09;;;;;;;;;;;19.30;81.30;;;;;;6301360;22;19974;-96
2022/07/09 02:02:35;;;;;;;;;;;19.30;81.30;;;;;;6300926;22;19989;-96
2022/07/09 02:05:03;;;;;;;;;;;19.30;80.30;;;;;;6302328;22;19946;-96
2022/07/09 02:07:30;;;;;;;;;;;19.30;79.40;;;;;;6327458;22;19944;-96
2022/07/09 02:09:56;;;;;;;;;;;19.30;79.10;;;;;;6302056;22;19962;-96
2022/07/09 02:12:22;;;;;;;;;;;19.30;78.60;;;;;;6302480;22;19967;-96
2022/07/09 02:14:49;;;;;;;;;;;19.30;79.30;;;;;;6301876;22;19939;-96
2022/07/09 02:17:15;;;;;;;;;;;19.40;79.20;;;;;;6302708;22;19944;-96
2022/07/09 02:19:41;;;;;;;;;;;19.40;79.80;;;;;;6302514;22;19942;-96
2022/07/09 02:22:07;;;;;;;;;;;19.40;78.60;;;;;;6302692;22;19937;-96
2022/07/09 02:24:33;;;;;;;;;;;19.30;78.00;;;;;;6301772;22;19939;-96
2022/07/09 02:27:02;;;;;;;;;;;19.40;77.50;;;;;;6328688;22;19993;-96
2022/07/09 02:29:28;;;;;;;;;;;19.40;77.70;;;;;;6330293;22;19955;-96
2022/07/09 02:31:57;;;;;;;;;;;19.40;76.40;;;;;;6303688;22;19921;-96
2022/07/09 02:34:24;;;;;;;;;;;19.40;76.90;;;;;;6330611;22;19986;-96
2022/07/09 02:36:50;;;;;;;;;;;19.40;76.50;;;;;;6302704;22;20293;-96
2022/07/09 02:39:17;;;;;;;;;;;19.30;76.60;;;;;;6302700;22;19943;-96
2022/07/09 02:41:44;;;;;;;;;;;19.30;77.60;;;;;;6329525;22;19934;-96
2022/07/09 02:44:10;;;;;;;;;;;19.30;76.10;;;;;;6327599;22;19942;-96
2022/07/09 02:46:36;;;;;;;;;;;19.30;74.40;;;;;;6327881;22;19930;-96
2022/07/09 02:49:02;;;;;;;;;;;19.40;73.80;;;;;;6327736;22;20021;-96
2022/07/09 02:51:28;;;;;;;;;;;19.50;73.30;;;;;;6329538;22;19933;-96
2022/07/09 02:53:55;;;;;;;;;;;19.50;72.90;;;;;;6300957;22;19949;-96
2022/07/09 02:56:21;;;;;;;;;;;19.60;72.20;;;;;;6326566;22;19939;-96
2022/07/09 02:58:49;;;;;;;;;;;19.70;71.80;;;;;;6299764;22;19942;-96
2022/07/09 03:01:15;;;;;;;;;;;19.80;71.30;;;;;;6299814;22;20376;-96
2022/07/09 03:03:41;;;;;;;;;;;19.80;71.20;;;;;;6300220;22;19992;-96
2022/07/09 03:06:08;;;;;;;;;;;19.80;70.50;;;;;;6302365;22;19930;-96
2022/07/09 03:08:34;;;;;;;;;;;19.90;70.10;;;;;;6301411;22;19979;-96
2022/07/09 03:11:00;;;;;;;;;;;19.90;70.10;;;;;;6330529;22;19978;-96
2022/07/09 03:13:27;;;;;;;;;;;19.90;69.80;;;;;;6303056;22;19938;-96
2022/07/09 03:15:53;;;;;;;;;;;19.80;69.20;;;;;;6302945;22;19945;-96
2022/07/09 03:18:19;;;;;;;;;;;19.80;69.10;;;;;;6303139;22;19944;-96
2022/07/09 03:20:48;;;;;;;;;;;19.80;69.10;;;;;;6304179;22;19939;-97
2022/07/09 03:23:15;;;;;;;;;;;19.80;69.30;;;;;;6304471;22;19947;-96
2022/07/09 03:25:44;;;;;;;;;;;19.80;69.10;;;;;;6305180;22;20022;-96
2022/07/09 03:28:11;;;;;;;;;;;19.80;68.80;;;;;;6304673;22;20388;-96
2022/07/09 03:30:38;;;;;;;;;;;19.80;68.20;;;;;;6304127;22;19972;-96
2022/07/09 03:33:04;;;;;;;;;;;19.80;68.20;;;;;;6331412;22;19937;-96
2022/07/09 03:35:31;;;;;;;;;;;19.90;67.90;;;;;;6303692;22;19942;-96
2022/07/09 03:37:58;;;;;;;;;;;19.80;67.80;;;;;;6331240;22;19936;-96
2022/07/09 03:40:28;;;;;;;;;;;19.90;67.40;;;;;;6331786;22;20039;-96
2022/07/09 03:42:54;;;;;;;;;;;19.90;67.00;;;;;;6304395;22;19940;-96
2022/07/09 03:45:21;;;;;;;;;;;19.90;66.80;;;;;;6303945;22;19943;-96
2022/07/09 03:47:48;;;;;;;;;;;20.00;65.60;;;;;;6303207;22;20349;-96
2022/07/09 03:50:14;;;;;;;;;;;20.00;65.80;;;;;;6330916;22;20012;-96
2022/07/09 03:52:41;;;;;;;;;;;20.10;65.50;;;;;;6331297;22;19921;-96
2022/07/09 03:55:08;;;;;;;;;;;20.10;65.20;;;;;;6303278;22;19942;-96
2022/07/09 03:57:37;;;;;;;;;;;20.10;65.00;;;;;;6302590;22;19946;-96
2022/07/09 04:00:04;;;;;;;;;;;20.10;65.70;;;;;;6330180;22;19942;-96
2022/07/09 04:02:30;;;;;;;;;;;20.10;64.90;;;;;;6328049;22;19930;-96
2022/07/09 04:04:57;;;;;;;;;;;20.10;65.10;;;;;;6300560;22;19937;-96
2022/07/09 04:07:26;;;;;;;;;;;20.20;67.20;;;;;;6324863;22;19936;-96
2022/07/09 04:09:55;;;;;;;;;;;20.10;67.20;;;;;;6326556;22;20460;-96
2022/07/09 04:12:21;;;;;;;;;;;20.00;68.10;;;;;;6301063;22;19941;-96
2022/07/09 04:14:48;;;;;;;;;;;20.00;66.00;;;;;;6302176;22;20004;-96
2022/07/09 04:17:14;;;;;;;;;;;20.00;64.90;;;;;;6328382;22;19931;-96
2022/07/09 04:19:41;;;;;;;;;;;20.10;64.50;;;;;;6301101;22;19961;-96
2022/07/09 04:22:07;;;;;;;;;;;20.20;64.70;;;;;;6301643;22;19938;-96
2022/07/09 04:24:33;;;;;;;;;;;20.20;64.10;;;;;;6302914;22;19926;-96
2022/07/09 04:27:02;;;;;;;;;;;20.20;64.10;;;;;;6303533;22;19966;-96
2022/07/09 04:29:28;;;;;;;;;;;20.30;64.00;;;;;;6302731;22;19960;-96
2022/07/09 04:31:55;;;;;;;;;;;20.30;63.80;;;;;;6303147;22;19928;-96
2022/07/09 04:34:21;;;;;;;;;;;20.30;63.60;;;;;;6302853;22;19986;-96
2022/07/09 04:36:49;;;;;;;;;;;20.40;63.60;;;;;;6304311;22;19938;-96
2022/07/09 04:39:15;;;;;;;;;;;20.40;63.30;;;;;;6303098;22;19968;-96
2022/07/09 04:41:43;;;;;;;;;;;20.40;63.30;;;;;;6302753;22;20362;-96
2022/07/09 04:44:17;;;;;;;;;;;20.50;63.30;;;;;;6302848;22;19940;-96
2022/07/09 04:46:46;;;;;;;;;;;20.60;62.80;;;;;;6329708;22;19943;-96
2022/07/09 04:49:12;;;;;;;;;;;20.60;62.40;;;;;;6303547;22;19980;-96
2022/07/09 04:51:39;;;;;;;;;;;20.70;62.40;;;;;;6302520;22;19934;-96
2022/07/09 04:54:05;;;;;;;;;;;20.70;62.20;;;;;;6302911;22;20336;-96
2022/07/09 04:56:30;;;;;;;;;;;20.80;62.50;;;;;;6299697;22;19971;-96
2022/07/09 04:58:59;;;;;;;;;;;20.80;64.50;;;;;;6326389;22;19929;-96
2022/07/09 05:01:25;;;;;;;;;;;20.60;66.40;;;;;;6300574;22;19944;-96
2022/07/09 05:03:52;;;;;;;;;;;20.60;64.40;;;;;;6298651;22;19930;-96
2022/07/09 05:06:19;;;;;;;;;;;20.60;64.20;;;;;;6328812;22;19956;-96
2022/07/09 05:08:48;;;;;;;;;;;20.70;62.70;;;;;;6300271;22;19969;-96
2022/07/09 05:11:15;;;;;;;;;;;20.80;62.70;;;;;;6331338;22;19938;-96
2022/07/09 05:18:21;;;;;;;;;;;21.00;62.30;;;;;;5133916;27;19968;-96
2022/07/09 05:20:48;;;;;;;;;;;21.40;60.70;;;;;;5136059;28;19988;-96
2022/07/09 05:23:18;;;;;;;;;;;21.50;60.10;;;;;;5154267;28;19944;-96
2022/07/09 05:25:49;;;;;;;;;;;21.50;59.80;;;;;;5150339;28;19960;-96
2022/07/09 05:28:16;;;;;;;;;;;21.60;59.60;;;;;;5115564;28;19940;-96
2022/07/09 05:30:44;;;;;;;;;;;21.70;60.20;;;;;;5115158;28;19949;-96
2022/07/09 05:33:11;;;;;;;;;;;21.80;60.20;;;;;;5115323;28;19940;-96
2022/07/09 05:35:42;;;;;;;;;;;21.80;60.10;;;;;;5114948;28;20035;-96
2022/07/09 05:38:08;;;;;;;;;;;21.90;57.60;;;;;;5132558;28;19939;-96
2022/07/09 05:40:40;;;;;;;;;;;22.00;57.70;;;;;;5133409;28;19940;-96
2022/07/09 05:43:14;;;;;;;;;;;22.10;57.50;;;;;;5113572;28;19933;-96
2022/07/09 05:45:41;;;;;;;;;;;22.20;59.90;;;;;;5113764;28;19960;-96
2022/07/09 05:48:13;;;;;;;;;;;22.20;59.00;;;;;;5112843;28;19978;-96
2022/07/09 05:50:40;;;;;;;;;;;22.20;60.60;;;;;;5132271;28;19939;-96
2022/07/09 05:53:08;;;;;;;;;;;22.30;61.60;;;;;;5113569;28;19971;-96
2022/07/09 05:55:35;;;;;;;;;;;22.30;59.50;;;;;;5131754;28;19963;-96
2022/07/09 05:58:02;;;;;;;;;;;22.40;56.70;;;;;;5113698;28;20010;-96
2022/07/09 06:00:33;;;;;;;;;;;22.50;56.90;;;;;;5113456;28;19961;-96
2022/07/09 06:02:59;;;;;;;;;;;22.60;58.90;;;;;;5111172;28;19939;-96
2022/07/09 06:05:25;;;;;;;;;;;22.60;55.70;;;;;;5111484;28;19935;-96
2022/07/09 06:07:51;;;;;;;;;;;22.70;55.70;;;;;;5108654;28;19942;-96
2022/07/09 06:10:23;;;;;;;;;;;22.80;57.20;;;;;;5128794;28;19937;-96
2022/07/09 06:12:57;;;;;;;;;;;22.80;55.40;;;;;;5111929;28;19946;-96
2022/07/09 06:15:23;;;;;;;;;;;22.90;55.50;;;;;;5114886;28;20013;-96
2022/07/09 06:17:56;;;;;;;;;;;23.00;55.70;;;;;;5132586;28;19992;-96
2022/07/09 06:20:32;;;;;;;;;;;23.00;55.20;;;;;;5133531;28;19931;-96
2022/07/09 06:23:03;;;;;;;;;;;23.10;54.80;;;;;;5112845;28;19944;-96
2022/07/09 06:25:31;;;;;;;;;;;23.20;55.00;;;;;;5113719;28;19940;-96
2022/07/09 06:28:04;;;;;;;;;;;23.30;54.70;;;;;;5109319;28;19958;-96
2022/07/09 06:30:32;;;;;;;;;;;23.50;54.00;;;;;;5102204;28;19941;-96
2022/07/09 06:33:02;;;;;;;;;;;23.70;53.60;;;;;;5119603;28;20450;-96
2022/07/09 06:35:30;;;;;;;;;;;23.90;52.40;;;;;;5102270;28;19937;-96
2022/07/09 06:37:57;;;;;;;;;;;24.00;52.40;;;;;;5100783;28;20058;-96
2022/07/09 06:40:26;;;;;;;;;;;24.10;52.60;;;;;;5101201;28;19945;-96
2022/07/09 06:43:01;;;;;;;;;;;24.20;51.40;;;;;;5102888;28;19938;-96
2022/07/09 06:45:31;;;;;;;;;;;24.30;50.80;;;;;;5085253;28;19965;-96
2022/07/09 06:48:05;;;;;;;;;;;24.30;51.00;;;;;;5119006;28;19943;-96
2022/07/09 06:50:35;;;;;;;;;;;24.30;50.70;;;;;;5100949;28;19973;-96
2022/07/09 06:53:06;;;;;;;;;;;24.40;50.20;;;;;;5119081;28;20000;-96
2022/07/09 06:55:36;;;;;;;;;;;24.40;50.20;;;;;;5101714;28;19942;-96
2022/07/09 06:58:05;;;;;;;;;;;24.40;50.10;;;;;;5101595;28;19927;-96
2022/07/09 07:00:35;;;;;;;;;;;24.50;53.40;;;;;;5118513;28;19946;-96
2022/07/09 07:03:02;;;;;;;;;;;24.50;53.00;;;;;;5101248;28;20025;-96
2022/07/09 07:05:33;;;;;;;;;;;24.50;53.30;;;;;;5101239;28;19939;-96
2022/07/09 07:08:03;;;;;;;;;;;24.60;51.40;;;;;;5101508;28;19949;-96
2022/07/09 07:10:34;;;;;;;;;;;24.70;50.70;;;;;;5119634;28;20028;-96
2022/07/09 07:13:05;;;;;;;;;;;24.80;51.00;;;;;;5120112;28;19925;-96
2022/07/09 07:15:33;;;;;;;;;;;24.90;52.50;;;;;;5101789;28;20005;-96
2022/07/09 07:18:10;;;;;;;;;;;24.90;50.00;;;;;;5119494;28;20031;-96
2022/07/09 07:20:37;;;;;;;;;;;24.80;51.60;;;;;;5100838;28;19978;-96
2022/07/09 07:23:12;;;;;;;;;;;24.90;50.50;;;;;;5100822;28;20032;-96
2022/07/09 07:25:41;;;;;;;;;;;24.90;50.70;;;;;;5119667;28;20021;-96
2022/07/09 07:28:11;;;;;;;;;;;24.90;51.70;;;;;;5114593;28;19930;-96
2022/07/09 07:31:13;;;;;;;;;;;25.00;50.70;;;;;;5100080;28;19947;-96
2022/07/09 07:33:40;;;;;;;;;;;25.00;51.90;;;;;;5116376;28;20288;-96
2022/07/09 07:36:06;;;;;;;;;;;24.90;49.60;;;;;;5100096;28;20328;-96
2022/07/09 07:38:39;;;;;;;;;;;24.70;49.90;;;;;;5099307;28;19956;-96
2022/07/09 07:41:09;;;;;;;;;;;24.70;51.20;;;;;;5097933;28;19951;-96
2022/07/09 07:43:37;;;;;;;;;;;24.70;50.70;;;;;;5100099;28;19998;-96
2022/07/09 07:46:10;;;;;;;;;;;24.80;51.50;;;;;;5116996;28;19963;-96
2022/07/09 07:48:45;;;;;;;;;;;24.90;50.00;;;;;;5083435;28;19947;-96
2022/07/09 07:51:11;;;;;;;;;;;25.00;51.30;;;;;;5099377;28;19991;-96
2022/07/09 07:53:39;;;;;;;;;;;25.00;51.10;;;;;;5100160;28;19947;-96
2022/07/09 07:56:08;;;;;;;;;;;24.90;52.10;;;;;;5081291;28;19957;-96
2022/07/09 07:58:36;;;;;;;;;;;24.80;50.60;;;;;;5100822;28;19980;-96
2022/07/09 08:01:02;;;;;;;;;;;24.80;52.40;;;;;;5118244;28;20234;-96
2022/07/09 08:03:29;;;;;;;;;;;24.80;51.10;;;;;;5115735;28;19960;-96
2022/07/09 08:06:00;;;;;;;;;;;24.90;51.60;;;;;;5099219;28;19934;-96
2022/07/09 08:08:30;;;;;;;;;;;25.00;49.60;;;;;;5100337;28;19942;-96
2022/07/09 08:23:10;;;;;;;;;;;25.00;48.40;;;;;;5155536;22;20469;-96
2022/07/09 08:25:37;;;;;;;;;;;25.20;51.70;;;;;;5091749;28;19952;-96
2022/07/09 08:28:03;;;;;;;;;;;25.20;50.00;;;;;;5089699;28;19932;-96
2022/07/09 08:30:30;;;;;;;;;;;25.20;49.30;;;;;;5088822;28;19972;-96
2022/07/09 08:32:56;;;;;;;;;;;25.10;48.70;;;;;;5088120;28;19950;-96
2022/07/09 08:35:22;;;;;;;;;;;25.00;49.90;;;;;;5088538;28;19992;-96
2022/07/09 08:37:48;;;;;;;;;;;25.10;50.70;;;;;;5089173;28;19949;-96
2022/07/09 08:40:20;;;;;;;;;;;25.00;49.60;;;;;;5088077;28;19947;-96
2022/07/09 08:42:46;;;;;;;;;;;25.10;51.20;;;;;;5088783;28;19977;-96
2022/07/09 08:45:16;;;;;;;;;;;25.20;50.00;;;;;;5087963;28;20322;-96
2022/07/09 08:47:42;;;;;;;;;;;25.20;49.40;;;;;;5087369;28;19940;-96
2022/07/09 08:50:08;;;;;;;;;;;25.20;49.40;;;;;;5086934;28;19959;-96
2022/07/09 08:52:35;;;;;;;;;;;25.20;49.30;;;;;;5086451;28;20016;-96
2022/07/09 08:55:01;;;;;;;;;;;25.10;49.00;;;;;;5085333;28;19964;-96
2022/07/09 08:57:27;;;;;;;;;;;25.20;49.20;;;;;;5087718;28;20418;-96
2022/07/09 08:59:53;;;;;;;;;;;25.20;47.60;;;;;;5086493;28;19931;-96
2022/07/09 09:02:20;;;;;;;;;;;25.20;48.20;;;;;;5083983;28;19949;-96
2022/07/09 09:04:48;;;;;;;;;;;25.20;47.80;;;;;;5084170;28;19941;-96
2022/07/09 09:07:18;;;;;;;;;;;25.30;48.40;;;;;;5083370;28;20501;-96
2022/07/09 09:09:45;;;;;;;;;;;25.30;45.00;;;;;;5086622;28;19934;-96
2022/07/09 09:12:11;;;;;;;;;;;25.30;47.60;;;;;;5083589;28;19967;-96
2022/07/09 09:14:37;;;;;;;;;;;25.30;46.00;;;;;;5085828;28;19943;-96
2022/07/09 09:17:11;;;;;;;;;;;25.30;46.40;;;;;;5088947;28;19951;-96
2022/07/09 09:19:44;;;;;;;;;;;25.30;47.30;;;;;;5089998;28;19948;-96
2022/07/09 09:22:19;;;;;;;;;;;25.50;47.30;;;;;;5083683;28;19958;-96
2022/07/09 09:24:50;;;;;;;;;;;25.70;48.20;;;;;;5078220;28;20010;-96
2022/07/09 09:27:18;;;;;;;;;;;25.90;45.10;;;;;;5076737;28;19963;-96
2022/07/09 09:29:55;;;;;;;;;;;26.10;44.90;;;;;;5078419;28;19969;-96
2022/07/09 09:32:26;;;;;;;;;;;26.20;46.30;;;;;;5078949;28;19986;-96
2022/07/09 09:34:52;;;;;;;;;;;26.40;44.50;;;;;;5077294;28;19944;-96
2022/07/09 09:37:25;;;;;;;;;;;26.40;45.70;;;;;;5075132;28;19950;-96
2022/07/09 09:39:52;;;;;;;;;;;26.30;45.00;;;;;;5074279;28;19942;-96
2022/07/09 09:42:23;;;;;;;;;;;26.20;46.20;;;;;;5073286;28;19942;-96
2022/07/09 09:44:59;;;;;;;;;;;26.20;43.90;;;;;;5075402;28;20450;-96
2022/07/09 09:47:26;;;;;;;;;;;26.40;43.10;;;;;;5076733;28;20322;-96
2022/07/09 09:49:54;;;;;;;;;;;26.60;44.00;;;;;;5073974;28;19949;-96
2022/07/09 09:52:21;;;;;;;;;;;26.50;44.70;;;;;;5075180;28;19941;-96
2022/07/09 09:54:48;;;;;;;;;;;26.50;45.00;;;;;;5075333;28;19980;-96
2022/07/09 09:57:16;;;;;;;;;;;26.70;45.20;;;;;;5075069;28;19947;-97
2022/07/09 09:59:45;;;;;;;;;;;26.80;45.10;;;;;;5076502;28;19950;-97
2022/07/09 10:02:14;;;;;;;;;;;27.00;43.80;;;;;;5075375;28;19936;-96
2022/07/09 10:04:43;;;;;;;;;;;26.90;42.80;;;;;;5074162;28;20042;-96
2022/07/09 10:07:15;;;;;;;;;;;26.80;43.40;;;;;;5073571;28;19974;-96
2022/07/09 10:09:59;;;;;;;;;;;26.80;44.70;;;;;;5074314;28;19966;-96
2022/07/09 10:12:27;;;;;;;;;;;26.90;47.40;;;;;;5076237;28;19933;-96
2022/07/09 10:14:57;;;;;;;;;;;27.00;45.10;;;;;;5076096;28;20038;-96
2022/07/09 10:17:24;;;;;;;;;;;27.10;44.40;;;;;;5076804;28;19941;-96
2022/07/09 10:19:54;;;;;;;;;;;27.20;44.50;;;;;;5076650;28;19955;-96
2022/07/09 10:22:20;;;;;;;;;;;27.20;45.00;;;;;;5075016;28;19946;-96
2022/07/09 10:24:50;;;;;;;;;;;27.20;43.80;;;;;;5072625;28;20032;-96
2022/07/09 10:27:16;;;;;;;;;;;26.90;44.50;;;;;;5073502;28;20028;-96
2022/07/09 10:29:58;;;;;;;;;;;26.90;45.70;;;;;;5074534;28;19966;-96
2022/07/09 10:32:29;;;;;;;;;;;27.00;45.70;;;;;;5074819;28;19955;-96
2022/07/09 10:35:07;;;;;;;;;;;27.10;44.00;;;;;;5074330;28;19955;-97
2022/07/09 10:37:43;;;;;;;;;;;27.20;40.80;;;;;;5075789;28;19947;-96
2022/07/09 10:40:11;;;;;;;;;;;27.40;41.90;;;;;;5073623;28;19966;-96
2022/07/09 10:42:40;;;;;;;;;;;27.20;41.80;;;;;;5055597;28;19949;-96
2022/07/09 10:45:20;;;;;;;;;;;26.90;43.30;;;;;;5071522;28;19943;-96
2022/07/09 10:47:51;;;;;;;;;;;26.90;44.20;;;;;;5073801;28;20000;-96
2022/07/09 10:50:21;;;;;;;;;;;27.00;42.60;;;;;;5075722;28;19950;-96
2022/07/09 10:52:48;;;;;;;;;;;27.20;45.30;;;;;;5073917;28;19947;-96
2022/07/09 10:55:16;;;;;;;;;;;27.30;42.90;;;;;;5073573;28;19946;-96
2022/07/09 10:57:42;;;;;;;;;;;27.30;42.70;;;;;;5073113;28;19939;-96
2022/07/09 11:00:10;;;;;;;;;;;27.30;43.30;;;;;;5072988;28;19940;-96
2022/07/09 11:02:36;;;;;;;;;;;27.20;43.20;;;;;;5073497;28;19949;-96
2022/07/09 11:05:02;;;;;;;;;;;27.00;42.20;;;;;;5072263;28;19946;-96
2022/07/09 11:07:29;;;;;;;;;;;26.90;40.90;;;;;;5070623;28;19969;-97
2022/07/09 11:09:55;;;;;;;;;;;27.10;42.10;;;;;;5073356;28;19950;-96
2022/07/09 11:12:23;;;;;;;;;;;27.20;43.10;;;;;;5071847;28;19948;-96
2022/07/09 11:14:49;;;;;;;;;;;27.30;43.40;;;;;;5072345;28;19951;-96
2022/07/09 11:17:25;;;;;;;;;;;27.30;40.50;;;;;;5071874;28;19939;-96
2022/07/09 11:19:54;;;;;;;;;;;27.30;41.80;;;;;;5072905;28;20040;-96
2022/07/09 11:22:20;;;;;;;;;;;27.30;42.10;;;;;;5072900;28;20009;-96
2022/07/09 11:24:49;;;;;;;;;;;27.30;40.10;;;;;;5072169;28;19985;-96
2022/07/09 11:27:18;;;;;;;;;;;27.40;40.70;;;;;;5072071;28;19987;-96
2022/07/09 11:29:48;;;;;;;;;;;27.50;40.40;;;;;;5072407;28;19941;-96
2022/07/09 11:32:17;;;;;;;;;;;27.40;40.60;;;;;;5073483;28;19945;-97
2022/07/09 11:34:51;;;;;;;;;;;27.30;40.10;;;;;;5072283;28;19979;-96
2022/07/09 11:37:23;;;;;;;;;;;27.60;43.60;;;;;;5072126;28;19941;-96
2022/07/09 11:39:55;;;;;;;;;;;27.90;40.80;;;;;;5072504;28;19953;-96
2022/07/09 11:42:22;;;;;;;;;;;28.10;40.10;;;;;;5073424;28;19944;-97
2022/07/09 11:44:55;;;;;;;;;;;28.30;39.90;;;;;;5075171;28;19955;-96
2022/07/09 11:47:32;;;;;;;;;;;28.70;39.70;;;;;;5074349;28;20004;-96
2022/07/09 11:50:10;;;;;;;;;;;28.80;37.80;;;;;;5074152;28;19983;-96
2022/07/09 11:52:37;;;;;;;;;;;28.60;38.00;;;;;;5074475;28;19939;-96
2022/07/09 11:55:10;;;;;;;;;;;28.70;37.90;;;;;;5074837;28;19953;-96
2022/07/09 11:57:51;;;;;;;;;;;28.90;37.60;;;;;;5075691;28;20005;-96
2022/07/09 12:00:23;;;;;;;;;;;29.00;39.10;;;;;;5074186;28;19972;-97
2022/07/09 12:02:49;;;;;;;;;;;28.90;38.80;;;;;;5074339;28;19943;-96
2022/07/09 12:05:40;;;;;;;;;;;29.10;37.90;;;;;;5075120;28;19948;-96
2022/07/09 12:08:08;;;;;;;;;;;29.40;37.10;;;;;;5075300;28;19946;-96
2022/07/09 12:10:41;;;;;;;;;;;29.80;36.60;;;;;;5075097;28;19936;-96
2022/07/09 12:13:11;;;;;;;;;;;30.20;37.70;;;;;;5077841;28;19925;-96
2022/07/09 12:15:45;;;;;;;;;;;30.40;37.90;;;;;;5077392;28;19955;-96
2022/07/09 12:18:15;;;;;;;;;;;30.40;34.90;;;;;;5077908;28;19942;-96
2022/07/09 12:20:47;;;;;;;;;;;30.40;36.40;;;;;;5077581;28;19998;-96
2022/07/09 12:23:20;;;;;;;;;;;29.90;36.50;;;;;;5073939;28;19950;-96
2022/07/09 12:25:55;;;;;;;;;;;30.00;35.60;;;;;;5075033;28;19958;-96
2022/07/09 12:28:32;;;;;;;;;;;30.10;36.10;;;;;;5076617;28;19961;-96
2022/07/09 12:30:59;;;;;;;;;;;30.60;37.00;;;;;;5061118;28;19933;-96
2022/07/09 12:33:37;;;;;;;;;;;31.00;35.20;;;;;;5076329;28;19940;-96
2022/07/09 12:49:34;;;;;;;;;;;31.50;35.00;;;;;;5754137;22;10734880;-96
2022/07/09 12:52:05;;;;;;;;;;;31.60;33.90;;;;;;6142237;23;19985;-96
2022/07/09 13:57:13;;;;;;;;;;;34.70;29.50;;;;;;6150778;23;19964;-96
2022/07/09 13:59:39;;;;;;;;;;;33.40;31.20;;;;;;6150482;23;19955;-96
2022/07/09 14:02:05;;;;;;;;;;;32.70;32.30;;;;;;6147290;23;19937;-96
2022/07/09 14:04:31;;;;;;;;;;;32.40;33.50;;;;;;6173127;23;19939;-96
2022/07/09 14:06:59;;;;;;;;;;;32.50;34.50;;;;;;6174450;23;19976;-96
2022/07/09 14:09:27;;;;;;;;;;;33.90;31.90;;;;;;6177178;23;19950;-96
2022/07/09 14:11:54;;;;;;;;;;;35.40;27.80;;;;;;6177617;23;19946;-96
2022/07/09 14:14:21;;;;;;;;;;;35.80;26.20;;;;;;6151069;23;19939;-96
2022/07/09 14:16:50;;;;;;;;;;;35.40;27.20;;;;;;6175045;23;19921;-96
2022/07/09 14:19:20;;;;;;;;;;;34.70;27.30;;;;;;6152719;23;19943;-96
2022/07/09 14:22:05;;;;;;;;;;;35.10;28.10;;;;;;6153833;23;19952;-96
2022/07/09 14:24:36;;;;;;;;;;;35.90;28.30;;;;;;6152800;23;19954;-96
2022/07/09 14:27:34;;;;;;;;;;;37.20;26.50;;;;;;6154297;23;19976;-96
2022/07/09 14:30:07;;;;;;;;;;;38.80;23.60;;;;;;6154123;23;19924;-97
2022/07/09 14:32:48;;;;;;;;;;;39.90;23.50;;;;;;6155328;23;19931;-96
2022/07/09 14:35:16;;;;;;;;;;;39.10;23.40;;;;;;6174691;23;19938;-96
2022/07/09 14:37:45;;;;;;;;;;;37.30;24.20;;;;;;6176741;23;20020;-96
2022/07/09 14:40:16;;;;;;;;;;;37.00;24.30;;;;;;6176227;23;19948;-96
2022/07/09 14:42:57;;;;;;;;;;;36.80;26.90;;;;;;6154761;23;20269;-97
2022/07/09 14:45:28;;;;;;;;;;;37.20;25.60;;;;;;6178837;23;19952;-96
2022/07/09 14:48:07;;;;;;;;;;;38.60;23.00;;;;;;6176817;23;19958;-96
2022/07/09 14:50:38;;;;;;;;;;;38.90;22.60;;;;;;6153791;23;19997;-96
2022/07/09 14:53:10;;;;;;;;;;;38.80;22.60;;;;;;6177820;23;19951;-97
2022/07/09 14:55:44;;;;;;;;;;;39.10;23.50;;;;;;6178241;23;19986;-96
2022/07/09 14:58:37;;;;;;;;;;;39.80;21.90;;;;;;6154891;23;19985;-96
2022/07/09 15:01:09;;;;;;;;;;;39.90;21.70;;;;;;6153791;23;19936;-97
2022/07/09 15:03:48;;;;;;;;;;;39.70;21.20;;;;;;6154607;23;19947;-97
2022/07/09 15:06:24;;;;;;;;;;;39.10;21.80;;;;;;6150462;23;19943;-96
2022/07/09 15:08:52;;;;;;;;;;;37.30;25.20;;;;;;6147869;23;19969;-96
2022/07/09 15:11:21;;;;;;;;;;;36.50;24.80;;;;;;6176087;23;19917;-96
2022/07/09 15:13:54;;;;;;;;;;;36.40;24.80;;;;;;6157835;23;19940;-97
2022/07/09 15:16:27;;;;;;;;;;;36.40;27.00;;;;;;6177300;23;19935;-96
2022/07/09 15:19:18;;;;;;;;;;;36.70;24.90;;;;;;6154801;23;19921;-96
2022/07/09 15:21:57;;;;;;;;;;;36.70;26.70;;;;;;6178139;23;19948;-96
2022/07/09 15:24:47;;;;;;;;;;;36.60;26.60;;;;;;6113575;23;19954;-96
2022/07/09 15:40:38;;;;;;;;;;;35.00;27.60;;;;;;6178573;23;19997;-96
2022/07/09 15:43:13;;;;;;;;;;;34.90;26.60;;;;;;6182151;23;19945;-96
2022/07/09 15:45:50;;;;;;;;;;;34.50;27.10;;;;;;6156917;23;19949;-96
2022/07/09 15:48:23;;;;;;;;;;;34.60;27.10;;;;;;6133833;23;19966;-96
2022/07/09 15:50:54;;;;;;;;;;;34.70;27.10;;;;;;6180429;23;19954;-96
2022/07/09 15:53:39;;;;;;;;;;;34.40;26.70;;;;;;6182231;23;19938;-96
2022/07/09 15:56:14;;;;;;;;;;;34.60;29.70;;;;;;6183919;23;20351;-96
2022/07/09 15:59:04;;;;;;;;;;;34.80;29.40;;;;;;6156516;23;19945;-96
2022/07/09 16:02:02;;;;;;;;;;;34.90;29.40;;;;;;6182172;23;19945;-96
2022/07/09 23:39:19;;;;;;;;;;;20.00;79.00;;;;;;6170648;23;19986;-96
2022/07/09 23:41:46;;;;;;;;;;;19.90;76.10;;;;;;6201980;23;19953;-96
2022/07/09 23:44:12;;;;;;;;;;;19.80;76.50;;;;;;6231723;23;19934;-96
2022/07/09 23:46:37;;;;;;;;;;;19.80;77.70;;;;;;6204251;23;19942;-96
2022/07/09 23:49:03;;;;;;;;;;;19.80;78.70;;;;;;6203473;23;19968;-96
2022/07/09 23:51:29;;;;;;;;;;;19.60;80.10;;;;;;6203810;23;19939;-96
2022/07/09 23:53:55;;;;;;;;;;;19.60;80.60;;;;;;6203361;23;19944;-96
2022/07/09 23:56:20;;;;;;;;;;;19.50;79.50;;;;;;6203515;23;19948;-96
2022/07/09 23:58:46;;;;;;;;;;;19.50;79.90;;;;;;6203429;23;19949;-96
